Airfield :
LOGIN :

Register | Disclaimer

   EN    FR    IT 

 










Legend :    VFR   Marginal VFR   IFR   Intensive IFR   Very Intensive IFR
Visi :
Ceiling :
>= 8 km
>= 3000ft
5 to 8 km
1000 to 3000 ft
1500m to 5 km
500 to 1000 ft
800 to 1500m
200 to 500 ft
< 800m
< 200 ft
Symbols :   Thunderstorms  Fog  Heavy snow  Heavy precipitations  Wind > 20 kt
SIGMETs :     Misc.  Thunderstorms  Icing  Turbulence  Mountain Waves  Volcanic Ashes






- Airport Elevation : 141 ft
- IATA code : SKS


EKSP - Srydstrup Vojens

CURRENT METAR :
  • 052320Z 22008KT 9999 FEW032 SCT063 BKN084 13/09 Q1002

EXPIRED METARs :
  • 052250Z 23010KT CAVOK 13/10 Q1003
  • 052220Z 23010KT 9999 FEW030 SCT063 BKN089 13/10 Q1003
  • 052150Z 23010KT 9999 FEW030 SCT063 BKN085 13/10 Q1003
  • 052120Z 24011KT 9999 FEW030 SCT063 13/09 Q1003
  • 052050Z 24013KT 9999 FEW030 SCT063 13/10 Q1003

TAF TAF EKSP
Valid from the 05 at 21:00 until the 06 at 21:00 UTC


052011Z 0521/0621 23012KT 9999 SCT020 SCT040
TEMPO 0521/0607 23015G28KT 4000 SHRA BKN015CB
BECMG 0607/0610 27018G35KT
TEMPO 0607/0617 3000 SHRA BKN015CB
TEMPO 0617/0621 -SHRA FEW020TCU
BECMG 0618/0621 29015KT



MET'MAP, your aeronautical weather chart ! - Copyright ORBIFLY December 2007 - Disclaimer

ORBIFLY MET'MAP TEAM :

Programming & Development : Alexandra Zaïnal
Concept & original design : Baudouin d'Aumeries
Assistance for programming : Marc-Olivier Méhu
Technical & hardware support : Manuel Goepfert

Contact : metmap@orbifly.com




SOURCES & CREDITS :

   NOAA